sensor_id;sensor_type;location;lat;lon;timestamp;P1;durP1;ratioP1;P2;durP2;ratioP2
24713;SDS011;12820;51.580;5.010;2023-09-30T00:00:51;16.63;;;8.88;;
24713;SDS011;12820;51.580;5.010;2023-09-30T00:05:53;14.10;;;8.30;;
24713;SDS011;12820;51.580;5.010;2023-09-30T00:10:56;22.60;;;9.07;;
24713;SDS011;12820;51.580;5.010;2023-09-30T00:15:58;18.90;;;9.10;;
24713;SDS011;12820;51.580;5.010;2023-09-30T00:21:00;17.08;;;8.98;;
24713;SDS011;12820;51.580;5.010;2023-09-30T00:26:03;22.73;;;9.48;;
24713;SDS011;12820;51.580;5.010;2023-09-30T00:31:08;15.15;;;8.93;;
24713;SDS011;12820;51.580;5.010;2023-09-30T00:36:13;17.63;;;9.45;;
24713;SDS011;12820;51.580;5.010;2023-09-30T00:41:15;19.85;;;9.75;;
24713;SDS011;12820;51.580;5.010;2023-09-30T00:46:23;19.27;;;9.90;;
24713;SDS011;12820;51.580;5.010;2023-09-30T00:51:29;18.67;;;9.77;;
24713;SDS011;12820;51.580;5.010;2023-09-30T00:56:32;19.90;;;9.35;;
24713;SDS011;12820;51.580;5.010;2023-09-30T01:01:35;15.00;;;8.95;;
24713;SDS011;12820;51.580;5.010;2023-09-30T01:06:38;14.70;;;8.18;;
24713;SDS011;12820;51.580;5.010;2023-09-30T01:11:41;18.45;;;9.15;;
24713;SDS011;12820;51.580;5.010;2023-09-30T01:16:43;20.40;;;9.82;;
24713;SDS011;12820;51.580;5.010;2023-09-30T01:21:45;18.33;;;9.48;;
24713;SDS011;12820;51.580;5.010;2023-09-30T01:26:50;18.33;;;9.20;;
24713;SDS011;12820;51.580;5.010;2023-09-30T01:31:54;18.30;;;8.40;;
24713;SDS011;12820;51.580;5.010;2023-09-30T01:36:57;17.45;;;8.80;;
24713;SDS011;12820;51.580;5.010;2023-09-30T01:41:59;18.85;;;9.20;;
24713;SDS011;12820;51.580;5.010;2023-09-30T01:47:02;16.95;;;8.80;;
24713;SDS011;12820;51.580;5.010;2023-09-30T01:52:04;17.38;;;8.60;;
24713;SDS011;12820;51.580;5.010;2023-09-30T01:57:06;14.90;;;8.38;;
24713;SDS011;12820;51.580;5.010;2023-09-30T02:02:08;16.30;;;9.10;;
24713;SDS011;12820;51.580;5.010;2023-09-30T02:07:11;19.50;;;8.77;;
24713;SDS011;12820;51.580;5.010;2023-09-30T02:12:13;13.82;;;7.75;;
24713;SDS011;12820;51.580;5.010;2023-09-30T02:17:15;17.73;;;9.23;;
24713;SDS011;12820;51.580;5.010;2023-09-30T02:22:17;16.55;;;8.98;;
24713;SDS011;12820;51.580;5.010;2023-09-30T02:27:20;18.67;;;9.90;;
24713;SDS011;12820;51.580;5.010;2023-09-30T02:32:22;13.70;;;8.77;;
24713;SDS011;12820;51.580;5.010;2023-09-30T02:37:25;15.65;;;9.20;;
24713;SDS011;12820;51.580;5.010;2023-09-30T02:42:28;20.88;;;9.45;;
24713;SDS011;12820;51.580;5.010;2023-09-30T02:47:32;19.85;;;10.48;;
24713;SDS011;12820;51.580;5.010;2023-09-30T02:52:34;19.20;;;9.98;;
24713;SDS011;12820;51.580;5.010;2023-09-30T02:57:38;19.08;;;10.32;;
24713;SDS011;12820;51.580;5.010;2023-09-30T03:02:41;19.77;;;10.68;;
24713;SDS011;12820;51.580;5.010;2023-09-30T03:07:43;19.65;;;10.63;;
24713;SDS011;12820;51.580;5.010;2023-09-30T03:12:47;20.80;;;10.93;;
24713;SDS011;12820;51.580;5.010;2023-09-30T03:17:49;16.50;;;9.15;;
24713;SDS011;12820;51.580;5.010;2023-09-30T03:22:56;17.30;;;9.93;;
24713;SDS011;12820;51.580;5.010;2023-09-30T03:27:58;18.10;;;9.75;;
24713;SDS011;12820;51.580;5.010;2023-09-30T03:33:00;19.67;;;10.57;;
24713;SDS011;12820;51.580;5.010;2023-09-30T03:38:06;21.05;;;11.23;;
24713;SDS011;12820;51.580;5.010;2023-09-30T03:43:11;20.52;;;11.07;;
24713;SDS011;12820;51.580;5.010;2023-09-30T03:48:13;22.02;;;11.70;;
24713;SDS011;12820;51.580;5.010;2023-09-30T03:53:15;19.63;;;10.20;;
24713;SDS011;12820;51.580;5.010;2023-09-30T03:58:18;19.27;;;10.55;;
24713;SDS011;12820;51.580;5.010;2023-09-30T04:03:20;21.15;;;10.98;;
24713;SDS011;12820;51.580;5.010;2023-09-30T04:08:22;19.33;;;11.27;;
24713;SDS011;12820;51.580;5.010;2023-09-30T04:13:25;22.23;;;11.57;;
24713;SDS011;12820;51.580;5.010;2023-09-30T04:18:27;23.63;;;11.82;;
24713;SDS011;12820;51.580;5.010;2023-09-30T04:23:29;19.30;;;11.63;;
24713;SDS011;12820;51.580;5.010;2023-09-30T04:28:32;20.55;;;10.75;;
24713;SDS011;12820;51.580;5.010;2023-09-30T04:33:36;20.05;;;11.35;;
24713;SDS011;12820;51.580;5.010;2023-09-30T04:38:38;29.75;;;11.20;;
24713;SDS011;12820;51.580;5.010;2023-09-30T04:43:41;17.88;;;10.77;;
24713;SDS011;12820;51.580;5.010;2023-09-30T04:48:45;20.38;;;10.65;;
24713;SDS011;12820;51.580;5.010;2023-09-30T04:53:50;22.90;;;11.55;;
24713;SDS011;12820;51.580;5.010;2023-09-30T04:58:53;20.67;;;11.45;;
24713;SDS011;12820;51.580;5.010;2023-09-30T05:03:55;24.67;;;11.07;;
24713;SDS011;12820;51.580;5.010;2023-09-30T05:08:57;21.13;;;11.23;;
24713;SDS011;12820;51.580;5.010;2023-09-30T05:14:00;23.15;;;10.60;;
24713;SDS011;12820;51.580;5.010;2023-09-30T05:19:02;23.77;;;11.63;;
24713;SDS011;12820;51.580;5.010;2023-09-30T05:24:06;24.73;;;11.48;;
24713;SDS011;12820;51.580;5.010;2023-09-30T05:29:09;19.10;;;10.93;;
24713;SDS011;12820;51.580;5.010;2023-09-30T05:34:11;20.23;;;11.35;;
24713;SDS011;12820;51.580;5.010;2023-09-30T05:39:13;23.77;;;11.82;;
24713;SDS011;12820;51.580;5.010;2023-09-30T05:44:21;26.45;;;11.38;;
24713;SDS011;12820;51.580;5.010;2023-09-30T05:49:23;20.40;;;11.88;;
24713;SDS011;12820;51.580;5.010;2023-09-30T05:54:26;26.50;;;12.63;;
24713;SDS011;12820;51.580;5.010;2023-09-30T05:59:28;26.38;;;12.73;;
24713;SDS011;12820;51.580;5.010;2023-09-30T06:04:30;20.75;;;10.98;;
24713;SDS011;12820;51.580;5.010;2023-09-30T06:09:32;21.02;;;13.05;;
24713;SDS011;12820;51.580;5.010;2023-09-30T06:14:34;21.75;;;12.43;;
24713;SDS011;12820;51.580;5.010;2023-09-30T06:19:37;23.63;;;12.63;;
24713;SDS011;12820;51.580;5.010;2023-09-30T06:24:39;28.40;;;15.40;;
24713;SDS011;12820;51.580;5.010;2023-09-30T06:29:42;31.00;;;16.58;;
24713;SDS011;12820;51.580;5.010;2023-09-30T06:34:44;39.65;;;18.20;;
24713;SDS011;12820;51.580;5.010;2023-09-30T06:39:47;37.03;;;19.48;;
24713;SDS011;12820;51.580;5.010;2023-09-30T06:44:50;46.55;;;20.63;;
24713;SDS011;12820;51.580;5.010;2023-09-30T06:49:52;47.10;;;22.25;;
24713;SDS011;12820;51.580;5.010;2023-09-30T06:54:55;45.95;;;22.48;;
24713;SDS011;12820;51.580;5.010;2023-09-30T06:59:57;38.90;;;19.30;;
24713;SDS011;12820;51.580;5.010;2023-09-30T07:04:59;42.53;;;20.15;;
24713;SDS011;12820;51.580;5.010;2023-09-30T07:10:02;39.90;;;19.95;;
24713;SDS011;12820;51.580;5.010;2023-09-30T07:15:06;40.88;;;19.75;;
24713;SDS011;12820;51.580;5.010;2023-09-30T07:20:09;40.38;;;20.95;;
24713;SDS011;12820;51.580;5.010;2023-09-30T07:25:11;40.03;;;19.45;;
24713;SDS011;12820;51.580;5.010;2023-09-30T07:30:16;38.85;;;20.00;;
24713;SDS011;12820;51.580;5.010;2023-09-30T07:35:19;44.95;;;20.52;;
24713;SDS011;12820;51.580;5.010;2023-09-30T07:40:21;44.78;;;21.13;;
24713;SDS011;12820;51.580;5.010;2023-09-30T07:45:24;41.35;;;20.27;;
24713;SDS011;12820;51.580;5.010;2023-09-30T07:50:26;37.50;;;20.70;;
24713;SDS011;12820;51.580;5.010;2023-09-30T07:55:29;47.75;;;21.60;;
24713;SDS011;12820;51.580;5.010;2023-09-30T08:00:31;49.10;;;21.45;;
24713;SDS011;12820;51.580;5.010;2023-09-30T08:05:35;41.08;;;21.50;;
24713;SDS011;12820;51.580;5.010;2023-09-30T08:10:39;35.85;;;20.25;;
24713;SDS011;12820;51.580;5.010;2023-09-30T08:15:41;38.33;;;20.02;;
24713;SDS011;12820;51.580;5.010;2023-09-30T08:20:43;40.58;;;20.98;;
24713;SDS011;12820;51.580;5.010;2023-09-30T08:25:45;36.95;;;21.48;;
24713;SDS011;12820;51.580;5.010;2023-09-30T08:30:48;43.95;;;20.50;;
24713;SDS011;12820;51.580;5.010;2023-09-30T08:35:51;44.95;;;21.38;;
24713;SDS011;12820;51.580;5.010;2023-09-30T08:40:53;39.40;;;19.20;;
24713;SDS011;12820;51.580;5.010;2023-09-30T08:45:57;44.15;;;22.63;;
24713;SDS011;12820;51.580;5.010;2023-09-30T08:51:02;46.75;;;23.27;;
24713;SDS011;12820;51.580;5.010;2023-09-30T08:56:04;49.28;;;24.30;;
24713;SDS011;12820;51.580;5.010;2023-09-30T09:01:11;45.13;;;23.58;;
24713;SDS011;12820;51.580;5.010;2023-09-30T09:06:15;47.78;;;25.27;;
24713;SDS011;12820;51.580;5.010;2023-09-30T09:11:17;53.13;;;28.05;;
24713;SDS011;12820;51.580;5.010;2023-09-30T09:16:19;55.08;;;28.38;;
24713;SDS011;12820;51.580;5.010;2023-09-30T09:21:22;53.35;;;27.23;;
24713;SDS011;12820;51.580;5.010;2023-09-30T09:26:26;48.78;;;24.13;;
24713;SDS011;12820;51.580;5.010;2023-09-30T09:31:31;45.75;;;24.85;;
24713;SDS011;12820;51.580;5.010;2023-09-30T09:36:41;55.33;;;26.35;;
24713;SDS011;12820;51.580;5.010;2023-09-30T09:41:52;49.78;;;24.45;;
24713;SDS011;12820;51.580;5.010;2023-09-30T09:46:55;49.60;;;23.55;;
24713;SDS011;12820;51.580;5.010;2023-09-30T09:51:59;47.80;;;26.67;;
24713;SDS011;12820;51.580;5.010;2023-09-30T09:57:02;52.58;;;24.70;;
24713;SDS011;12820;51.580;5.010;2023-09-30T10:02:09;43.35;;;23.80;;
24713;SDS011;12820;51.580;5.010;2023-09-30T10:07:19;44.75;;;24.23;;
24713;SDS011;12820;51.580;5.010;2023-09-30T10:12:24;41.55;;;23.52;;
24713;SDS011;12820;51.580;5.010;2023-09-30T10:39:06;43.60;;;23.38;;
24713;SDS011;12820;51.580;5.010;2023-09-30T10:44:35;37.90;;;19.80;;
24713;SDS011;12820;51.580;5.010;2023-09-30T10:49:37;33.28;;;18.52;;
24713;SDS011;12820;51.580;5.010;2023-09-30T10:54:41;35.17;;;17.00;;
24713;SDS011;12820;51.580;5.010;2023-09-30T10:59:43;28.30;;;14.93;;
24713;SDS011;12820;51.580;5.010;2023-09-30T11:04:46;27.92;;;13.60;;
24713;SDS011;12820;51.580;5.010;2023-09-30T11:09:49;28.00;;;12.07;;
24713;SDS011;12820;51.580;5.010;2023-09-30T11:14:58;23.65;;;10.20;;
24713;SDS011;12820;51.580;5.010;2023-09-30T11:20:02;23.60;;;10.15;;
24713;SDS011;12820;51.580;5.010;2023-09-30T11:25:15;22.98;;;9.20;;
24713;SDS011;12820;51.580;5.010;2023-09-30T11:30:20;22.13;;;10.40;;
24713;SDS011;12820;51.580;5.010;2023-09-30T11:35:24;22.15;;;7.65;;
24713;SDS011;12820;51.580;5.010;2023-09-30T11:40:26;21.23;;;9.38;;
24713;SDS011;12820;51.580;5.010;2023-09-30T11:45:28;20.35;;;7.10;;
24713;SDS011;12820;51.580;5.010;2023-09-30T11:50:49;19.55;;;7.25;;
24713;SDS011;12820;51.580;5.010;2023-09-30T11:55:52;18.83;;;5.72;;
24713;SDS011;12820;51.580;5.010;2023-09-30T12:00:58;15.52;;;5.57;;
24713;SDS011;12820;51.580;5.010;2023-09-30T12:06:02;16.38;;;4.90;;
24713;SDS011;12820;51.580;5.010;2023-09-30T12:11:04;16.05;;;4.88;;
24713;SDS011;12820;51.580;5.010;2023-09-30T12:16:06;12.43;;;4.15;;
24713;SDS011;12820;51.580;5.010;2023-09-30T12:21:10;11.80;;;4.28;;
24713;SDS011;12820;51.580;5.010;2023-09-30T12:26:12;9.00;;;3.83;;
24713;SDS011;12820;51.580;5.010;2023-09-30T12:31:19;21.13;;;4.88;;
24713;SDS011;12820;51.580;5.010;2023-09-30T12:36:25;16.05;;;5.00;;
24713;SDS011;12820;51.580;5.010;2023-09-30T12:41:27;14.05;;;4.65;;
24713;SDS011;12820;51.580;5.010;2023-09-30T12:46:31;13.77;;;3.92;;
24713;SDS011;12820;51.580;5.010;2023-09-30T12:51:36;11.52;;;3.78;;
24713;SDS011;12820;51.580;5.010;2023-09-30T12:56:38;15.82;;;3.85;;
24713;SDS011;12820;51.580;5.010;2023-09-30T13:01:41;12.77;;;3.30;;
24713;SDS011;12820;51.580;5.010;2023-09-30T13:06:43;11.68;;;3.22;;
24713;SDS011;12820;51.580;5.010;2023-09-30T13:11:46;9.13;;;3.10;;
24713;SDS011;12820;51.580;5.010;2023-09-30T13:16:48;12.57;;;3.58;;
24713;SDS011;12820;51.580;5.010;2023-09-30T13:21:50;10.57;;;2.88;;
24713;SDS011;12820;51.580;5.010;2023-09-30T13:26:54;13.65;;;3.10;;
24713;SDS011;12820;51.580;5.010;2023-09-30T13:31:56;10.02;;;2.88;;
24713;SDS011;12820;51.580;5.010;2023-09-30T13:36:59;10.45;;;3.00;;
24713;SDS011;12820;51.580;5.010;2023-09-30T13:42:01;11.98;;;3.28;;
24713;SDS011;12820;51.580;5.010;2023-09-30T13:47:04;10.75;;;3.03;;
24713;SDS011;12820;51.580;5.010;2023-09-30T13:52:06;12.70;;;3.30;;
24713;SDS011;12820;51.580;5.010;2023-09-30T13:57:08;15.73;;;3.22;;
24713;SDS011;12820;51.580;5.010;2023-09-30T14:02:10;14.55;;;3.28;;
24713;SDS011;12820;51.580;5.010;2023-09-30T14:07:13;10.90;;;3.05;;
24713;SDS011;12820;51.580;5.010;2023-09-30T14:12:15;10.80;;;2.78;;
24713;SDS011;12820;51.580;5.010;2023-09-30T14:17:17;12.00;;;2.97;;
24713;SDS011;12820;51.580;5.010;2023-09-30T14:22:19;13.23;;;3.13;;
24713;SDS011;12820;51.580;5.010;2023-09-30T14:27:21;12.00;;;3.03;;
24713;SDS011;12820;51.580;5.010;2023-09-30T14:32:24;12.63;;;2.90;;
24713;SDS011;12820;51.580;5.010;2023-09-30T14:37:26;12.10;;;3.22;;
24713;SDS011;12820;51.580;5.010;2023-09-30T14:42:29;13.88;;;3.05;;
24713;SDS011;12820;51.580;5.010;2023-09-30T14:47:31;13.98;;;3.08;;
24713;SDS011;12820;51.580;5.010;2023-09-30T14:52:33;12.52;;;3.42;;
24713;SDS011;12820;51.580;5.010;2023-09-30T14:57:35;16.00;;;3.47;;
24713;SDS011;12820;51.580;5.010;2023-09-30T15:02:38;14.98;;;3.25;;
24713;SDS011;12820;51.580;5.010;2023-09-30T15:07:42;9.02;;;2.88;;
24713;SDS011;12820;51.580;5.010;2023-09-30T15:12:45;11.27;;;2.85;;
24713;SDS011;12820;51.580;5.010;2023-09-30T15:17:47;12.43;;;3.25;;
24713;SDS011;12820;51.580;5.010;2023-09-30T15:22:49;16.20;;;4.25;;
24713;SDS011;12820;51.580;5.010;2023-09-30T15:27:51;14.40;;;4.10;;
24713;SDS011;12820;51.580;5.010;2023-09-30T15:32:54;18.08;;;3.67;;
24713;SDS011;12820;51.580;5.010;2023-09-30T15:37:56;12.55;;;3.90;;
24713;SDS011;12820;51.580;5.010;2023-09-30T15:42:59;13.07;;;3.50;;
24713;SDS011;12820;51.580;5.010;2023-09-30T15:48:02;16.20;;;3.60;;
24713;SDS011;12820;51.580;5.010;2023-09-30T15:53:06;14.48;;;3.60;;
24713;SDS011;12820;51.580;5.010;2023-09-30T15:58:08;13.38;;;3.65;;
24713;SDS011;12820;51.580;5.010;2023-09-30T16:03:10;13.02;;;3.65;;
24713;SDS011;12820;51.580;5.010;2023-09-30T16:08:13;12.98;;;3.60;;
24713;SDS011;12820;51.580;5.010;2023-09-30T16:13:15;15.52;;;4.88;;
24713;SDS011;12820;51.580;5.010;2023-09-30T16:18:18;18.25;;;4.15;;
24713;SDS011;12820;51.580;5.010;2023-09-30T16:23:20;16.65;;;4.55;;
24713;SDS011;12820;51.580;5.010;2023-09-30T16:28:23;13.23;;;3.63;;
24713;SDS011;12820;51.580;5.010;2023-09-30T16:33:25;17.90;;;4.03;;
24713;SDS011;12820;51.580;5.010;2023-09-30T16:38:27;13.15;;;3.90;;
24713;SDS011;12820;51.580;5.010;2023-09-30T16:43:30;11.70;;;3.95;;
24713;SDS011;12820;51.580;5.010;2023-09-30T16:48:32;16.95;;;3.97;;
24713;SDS011;12820;51.580;5.010;2023-09-30T16:53:35;14.65;;;3.17;;
24713;SDS011;12820;51.580;5.010;2023-09-30T16:58:39;11.45;;;3.33;;
24713;SDS011;12820;51.580;5.010;2023-09-30T17:03:42;16.35;;;3.78;;
24713;SDS011;12820;51.580;5.010;2023-09-30T17:08:44;12.93;;;3.67;;
24713;SDS011;12820;51.580;5.010;2023-09-30T17:13:46;15.63;;;3.60;;
24713;SDS011;12820;51.580;5.010;2023-09-30T17:18:49;14.63;;;3.28;;
24713;SDS011;12820;51.580;5.010;2023-09-30T17:23:51;13.48;;;3.42;;
24713;SDS011;12820;51.580;5.010;2023-09-30T17:28:54;19.05;;;5.60;;
24713;SDS011;12820;51.580;5.010;2023-09-30T17:33:56;20.00;;;5.70;;
24713;SDS011;12820;51.580;5.010;2023-09-30T17:38:58;9.23;;;4.15;;
24713;SDS011;12820;51.580;5.010;2023-09-30T17:44:00;15.43;;;4.45;;
24713;SDS011;12820;51.580;5.010;2023-09-30T17:49:03;11.77;;;4.13;;
24713;SDS011;12820;51.580;5.010;2023-09-30T17:54:05;10.73;;;3.67;;
24713;SDS011;12820;51.580;5.010;2023-09-30T17:59:07;13.02;;;3.80;;
24713;SDS011;12820;51.580;5.010;2023-09-30T18:04:10;17.98;;;4.45;;
24713;SDS011;12820;51.580;5.010;2023-09-30T18:09:12;12.30;;;3.92;;
24713;SDS011;12820;51.580;5.010;2023-09-30T18:14:15;11.48;;;3.90;;
24713;SDS011;12820;51.580;5.010;2023-09-30T18:19:18;12.25;;;3.90;;
24713;SDS011;12820;51.580;5.010;2023-09-30T18:24:22;10.57;;;3.78;;
24713;SDS011;12820;51.580;5.010;2023-09-30T18:29:24;14.82;;;4.18;;
24713;SDS011;12820;51.580;5.010;2023-09-30T18:34:27;14.18;;;4.07;;
24713;SDS011;12820;51.580;5.010;2023-09-30T18:39:31;13.52;;;5.22;;
24713;SDS011;12820;51.580;5.010;2023-09-30T18:44:36;11.80;;;4.30;;
24713;SDS011;12820;51.580;5.010;2023-09-30T18:49:40;13.57;;;4.68;;
24713;SDS011;12820;51.580;5.010;2023-09-30T18:54:42;13.48;;;5.00;;
24713;SDS011;12820;51.580;5.010;2023-09-30T18:59:45;12.30;;;5.60;;
24713;SDS011;12820;51.580;5.010;2023-09-30T19:04:47;14.60;;;5.72;;
24713;SDS011;12820;51.580;5.010;2023-09-30T19:09:49;13.02;;;4.63;;
24713;SDS011;12820;51.580;5.010;2023-09-30T19:14:52;16.80;;;5.10;;
24713;SDS011;12820;51.580;5.010;2023-09-30T19:19:54;10.73;;;4.70;;
24713;SDS011;12820;51.580;5.010;2023-09-30T19:24:57;11.98;;;5.45;;
24713;SDS011;12820;51.580;5.010;2023-09-30T19:29:59;11.68;;;5.40;;
24713;SDS011;12820;51.580;5.010;2023-09-30T19:35:03;11.07;;;5.50;;
24713;SDS011;12820;51.580;5.010;2023-09-30T19:40:06;12.77;;;6.20;;
24713;SDS011;12820;51.580;5.010;2023-09-30T19:45:09;14.18;;;6.40;;
24713;SDS011;12820;51.580;5.010;2023-09-30T19:50:12;15.43;;;6.65;;
24713;SDS011;12820;51.580;5.010;2023-09-30T19:55:14;15.20;;;7.00;;
24713;SDS011;12820;51.580;5.010;2023-09-30T20:00:16;13.98;;;6.05;;
24713;SDS011;12820;51.580;5.010;2023-09-30T20:05:19;13.60;;;6.25;;
24713;SDS011;12820;51.580;5.010;2023-09-30T20:10:22;14.68;;;6.72;;
24713;SDS011;12820;51.580;5.010;2023-09-30T20:15:24;14.23;;;7.55;;
24713;SDS011;12820;51.580;5.010;2023-09-30T20:20:26;13.43;;;7.20;;
24713;SDS011;12820;51.580;5.010;2023-09-30T20:25:29;14.80;;;7.18;;
24713;SDS011;12820;51.580;5.010;2023-09-30T20:30:34;12.80;;;7.38;;
24713;SDS011;12820;51.580;5.010;2023-09-30T20:35:36;17.67;;;7.75;;
24713;SDS011;12820;51.580;5.010;2023-09-30T20:40:39;16.48;;;7.68;;
24713;SDS011;12820;51.580;5.010;2023-09-30T20:45:44;16.42;;;8.32;;
24713;SDS011;12820;51.580;5.010;2023-09-30T20:50:46;17.58;;;7.93;;
24713;SDS011;12820;51.580;5.010;2023-09-30T20:55:48;15.90;;;8.00;;
24713;SDS011;12820;51.580;5.010;2023-09-30T21:00:50;15.93;;;7.32;;
24713;SDS011;12820;51.580;5.010;2023-09-30T21:05:53;15.32;;;8.10;;
24713;SDS011;12820;51.580;5.010;2023-09-30T21:10:55;16.70;;;7.85;;
24713;SDS011;12820;51.580;5.010;2023-09-30T21:15:57;17.88;;;8.80;;
24713;SDS011;12820;51.580;5.010;2023-09-30T21:21:00;18.73;;;7.65;;
24713;SDS011;12820;51.580;5.010;2023-09-30T21:26:02;17.13;;;7.72;;
24713;SDS011;12820;51.580;5.010;2023-09-30T21:31:06;15.23;;;8.15;;
24713;SDS011;12820;51.580;5.010;2023-09-30T21:36:08;15.55;;;7.78;;
24713;SDS011;12820;51.580;5.010;2023-09-30T21:41:17;16.52;;;7.57;;
24713;SDS011;12820;51.580;5.010;2023-09-30T21:46:23;13.25;;;7.40;;
24713;SDS011;12820;51.580;5.010;2023-09-30T21:51:25;16.15;;;7.80;;
24713;SDS011;12820;51.580;5.010;2023-09-30T21:56:27;13.45;;;7.65;;
24713;SDS011;12820;51.580;5.010;2023-09-30T22:01:30;15.93;;;7.25;;
24713;SDS011;12820;51.580;5.010;2023-09-30T22:06:34;16.40;;;8.00;;
24713;SDS011;12820;51.580;5.010;2023-09-30T22:11:36;14.73;;;7.70;;
24713;SDS011;12820;51.580;5.010;2023-09-30T22:16:39;16.52;;;8.25;;
24713;SDS011;12820;51.580;5.010;2023-09-30T22:21:41;13.95;;;7.90;;
24713;SDS011;12820;51.580;5.010;2023-09-30T22:26:43;17.20;;;7.75;;
24713;SDS011;12820;51.580;5.010;2023-09-30T22:31:46;18.98;;;7.57;;
24713;SDS011;12820;51.580;5.010;2023-09-30T22:36:48;19.67;;;7.60;;
24713;SDS011;12820;51.580;5.010;2023-09-30T22:41:50;20.05;;;7.88;;
24713;SDS011;12820;51.580;5.010;2023-09-30T22:46:53;15.13;;;7.40;;
24713;SDS011;12820;51.580;5.010;2023-09-30T22:51:56;20.42;;;7.95;;
24713;SDS011;12820;51.580;5.010;2023-09-30T22:56:58;18.80;;;7.93;;
24713;SDS011;12820;51.580;5.010;2023-09-30T23:02:00;15.00;;;7.25;;
24713;SDS011;12820;51.580;5.010;2023-09-30T23:07:03;14.57;;;7.07;;
24713;SDS011;12820;51.580;5.010;2023-09-30T23:12:06;15.68;;;6.60;;
24713;SDS011;12820;51.580;5.010;2023-09-30T23:17:08;14.80;;;6.72;;
24713;SDS011;12820;51.580;5.010;2023-09-30T23:22:11;13.55;;;6.72;;
24713;SDS011;12820;51.580;5.010;2023-09-30T23:27:16;17.42;;;6.55;;
24713;SDS011;12820;51.580;5.010;2023-09-30T23:32:18;18.33;;;7.18;;
24713;SDS011;12820;51.580;5.010;2023-09-30T23:37:21;15.95;;;7.85;;
24713;SDS011;12820;51.580;5.010;2023-09-30T23:42:23;16.88;;;6.40;;
24713;SDS011;12820;51.580;5.010;2023-09-30T23:47:26;13.10;;;6.82;;
24713;SDS011;12820;51.580;5.010;2023-09-30T23:52:48;12.18;;;6.63;;
24713;SDS011;12820;51.580;5.010;2023-09-30T23:57:52;13.60;;;7.13;;
